臺北飛航情報區 - 掃描席(區管/近場)

METAR RCTP 211330Z 04010KT 9999 FEW012 BKN045 BKN120 22/20 Q1018 NOSIG RMK A3007(Q)=

站台狀態:Online
最後更新:2018-11-21 21:30:02